createdAt,value
2022-11-28T00:00:39.426Z,5.10
2022-11-28T00:03:41.930Z,5.12
2022-11-28T00:06:46.507Z,5.11
2022-11-28T00:09:48.988Z,5.07
2022-11-28T00:12:51.144Z,4.96
2022-11-28T00:16:01.820Z,5.05
2022-11-28T00:19:05.038Z,5.14
2022-11-28T00:22:07.411Z,5.14
2022-11-28T00:25:09.487Z,5.18
2022-11-28T00:28:11.880Z,5.18
2022-11-28T00:31:16.253Z,5.14
2022-11-28T00:34:18.849Z,5.16
2022-11-28T00:37:20.939Z,5.19
2022-11-28T00:40:23.401Z,5.08
2022-11-28T00:43:25.485Z,5.09
2022-11-28T00:46:28.372Z,5.14
2022-11-28T00:49:30.534Z,5.12
2022-11-28T00:52:33.534Z,5.13
2022-11-28T00:55:38.840Z,5.08
2022-11-28T00:58:42.205Z,5.15
2022-11-28T01:01:44.468Z,5.17
2022-11-28T01:04:46.945Z,5.20
2022-11-28T01:07:49.024Z,5.16
2022-11-28T01:10:51.485Z,5.16
2022-11-28T01:13:55.874Z,5.13
2022-11-28T01:16:58.298Z,5.12
2022-11-28T01:20:00.408Z,5.10
2022-11-28T01:23:03.083Z,5.09
2022-11-28T01:26:08.110Z,5.06
2022-11-28T01:29:11.234Z,5.08
2022-11-28T01:32:13.356Z,5.07
2022-11-28T01:35:16.003Z,4.94
2022-11-28T01:38:18.093Z,4.96
2022-11-28T01:41:23.982Z,5.03
2022-11-28T01:44:26.053Z,5.06
2022-11-28T01:47:31.328Z,5.07
2022-11-28T01:50:36.015Z,5.06
2022-11-28T01:53:42.831Z,5.04
2022-11-28T01:56:54.838Z,5.06
2022-11-28T02:00:16.472Z,5.11
2022-11-28T02:03:27.084Z,5.08
2022-11-28T02:06:31.835Z,5.08
2022-11-28T02:09:33.985Z,5.12
2022-11-28T02:12:39.493Z,5.07
2022-11-28T02:16:00.585Z,4.96
2022-11-28T02:19:21.247Z,4.98
2022-11-28T02:22:32.504Z,4.97
2022-11-28T02:25:48.778Z,4.99
2022-11-28T02:28:50.794Z,5.05
2022-11-28T02:32:21.176Z,5.03
2022-11-28T02:35:34.894Z,4.93
2022-11-28T02:38:43.786Z,4.89
2022-11-28T02:42:15.126Z,4.88
2022-11-28T02:45:43.642Z,4.79
2022-11-28T02:48:52.708Z,4.85
2022-11-28T02:52:13.286Z,4.85
2022-11-28T02:55:16.324Z,4.85
2022-11-28T02:58:18.855Z,4.83
2022-11-28T03:01:26.232Z,4.82
2022-11-28T03:04:42.399Z,4.81
2022-11-28T03:08:10.731Z,4.65
2022-11-28T03:11:22.919Z,4.65
2022-11-28T03:14:49.006Z,4.75
2022-11-28T03:18:17.487Z,4.77
2022-11-28T03:22:09.140Z,4.78
2022-11-28T03:25:21.921Z,4.80
2022-11-28T03:29:16.068Z,4.80
2022-11-28T03:32:24.487Z,4.72
2022-11-28T03:35:34.436Z,4.81
2022-11-28T03:38:41.997Z,4.80
2022-11-28T03:41:54.013Z,4.78
2022-11-28T03:45:00.789Z,4.81
2022-11-28T03:48:13.358Z,4.76
2022-11-28T03:51:23.391Z,4.81
2022-11-28T03:54:40.348Z,4.85
2022-11-28T03:57:57.120Z,4.83
2022-11-28T04:00:59.251Z,4.84
2022-11-28T04:04:16.500Z,4.85
2022-11-28T04:07:32.401Z,4.77
2022-11-28T04:10:50.527Z,4.85
2022-11-28T04:14:14.038Z,4.92
2022-11-28T04:17:46.102Z,4.86
2022-11-28T04:20:55.434Z,4.92
2022-11-28T04:24:03.781Z,4.88
2022-11-28T04:27:10.215Z,4.91
2022-11-28T04:30:13.916Z,4.87
2022-11-28T04:33:20.171Z,4.86
2022-11-28T04:36:25.217Z,4.91
2022-11-28T04:39:30.561Z,4.91
2022-11-28T04:42:39.754Z,4.88
2022-11-28T04:45:50.152Z,4.81
2022-11-28T04:48:53.471Z,4.76
2022-11-28T04:52:20.816Z,4.79
2022-11-28T04:55:30.125Z,4.80
2022-11-28T04:58:40.375Z,4.79
2022-11-28T05:01:45.445Z,4.78
2022-11-28T05:04:47.689Z,4.79
2022-11-28T05:07:50.074Z,4.78
2022-11-28T05:10:52.265Z,4.74
2022-11-28T05:13:55.662Z,4.74
2022-11-28T05:16:57.785Z,4.81
2022-11-28T05:20:00.213Z,4.76
2022-11-28T05:23:02.327Z,4.76
2022-11-28T05:26:06.970Z,4.73
2022-11-28T05:29:09.545Z,4.74
2022-11-28T05:32:12.543Z,4.77
2022-11-28T05:35:15.058Z,4.78
2022-11-28T05:38:17.521Z,4.77
2022-11-28T05:41:31.109Z,4.81
2022-11-28T05:44:33.450Z,4.78
2022-11-28T05:47:35.874Z,4.73
2022-11-28T05:50:42.182Z,4.75
2022-11-28T05:53:44.535Z,4.71
2022-11-28T05:56:46.951Z,4.75
2022-11-28T05:59:49.104Z,4.81
2022-11-28T06:02:51.471Z,4.84
2022-11-28T06:05:53.844Z,4.71
2022-11-28T06:08:56.510Z,4.71
2022-11-28T06:11:58.868Z,4.70
2022-11-28T06:15:00.954Z,4.64
2022-11-28T06:18:03.342Z,4.65
2022-11-28T06:21:07.628Z,4.59
2022-11-28T06:24:10.887Z,4.60
2022-11-28T06:27:13.035Z,4.63
2022-11-28T06:30:15.500Z,4.70
2022-11-28T06:33:17.807Z,4.71
2022-11-28T06:36:20.937Z,4.62
2022-11-28T06:39:23.093Z,4.50
2022-11-28T06:42:25.502Z,4.55
2022-11-28T06:45:27.686Z,4.52
2022-11-28T06:48:30.487Z,4.59
2022-11-28T06:51:32.653Z,4.66
2022-11-28T06:54:35.068Z,4.65
2022-11-28T06:57:38.977Z,4.71
2022-11-28T07:00:41.579Z,4.73
2022-11-28T07:03:44.704Z,4.77
2022-11-28T07:06:49.384Z,4.82
2022-11-28T07:09:52.230Z,4.83
2022-11-28T07:13:03.768Z,4.76
2022-11-28T07:16:08.104Z,4.73
2022-11-28T07:19:11.731Z,4.80
2022-11-28T07:22:13.846Z,4.83
2022-11-28T07:25:16.573Z,4.77
2022-11-28T07:28:23.108Z,4.78
2022-11-28T07:31:29.337Z,4.81
2022-11-28T07:34:32.044Z,4.75
2022-11-28T07:37:34.656Z,4.74
2022-11-28T07:40:36.833Z,4.77
2022-11-28T07:43:40.714Z,4.73
2022-11-28T07:46:42.912Z,4.80
2022-11-28T07:49:45.990Z,4.80
2022-11-28T07:52:49.792Z,4.85
2022-11-28T07:55:52.463Z,4.87
2022-11-28T07:58:56.907Z,4.89
2022-11-28T08:02:02.829Z,4.95
2022-11-28T08:05:05.736Z,4.81
2022-11-28T08:08:07.990Z,4.75
2022-11-28T08:11:10.910Z,4.92
2022-11-28T08:14:14.205Z,4.89
2022-11-28T08:17:16.711Z,4.94
2022-11-28T08:20:18.943Z,5.02
2022-11-28T08:23:21.464Z,5.06
2022-11-28T08:26:28.995Z,5.01
2022-11-28T08:29:32.987Z,5.02
2022-11-28T08:32:35.149Z,5.05
2022-11-28T08:35:40.073Z,5.08
2022-11-28T08:38:49.918Z,5.07
2022-11-28T08:42:05.578Z,5.03
2022-11-28T08:45:10.064Z,5.01
2022-11-28T08:48:12.484Z,4.97
2022-11-28T08:51:16.863Z,4.95
2022-11-28T08:54:19.273Z,5.02
2022-11-28T08:57:21.568Z,5.01
2022-11-28T09:00:24.010Z,4.92
2022-11-28T09:03:26.329Z,4.88
2022-11-28T09:06:28.837Z,4.85
2022-11-28T09:09:32.863Z,4.86
2022-11-28T09:12:35.745Z,4.80
2022-11-28T09:15:42.176Z,4.66
2022-11-28T09:18:44.638Z,4.59
2022-11-28T09:21:46.754Z,4.67
2022-11-28T09:24:49.171Z,4.54
2022-11-28T09:27:51.291Z,4.49
2022-11-28T09:31:00.397Z,4.45
2022-11-28T09:34:04.089Z,4.56
2022-11-28T09:37:06.491Z,4.71
2022-11-28T09:40:24.895Z,4.76
2022-11-28T09:43:38.591Z,4.79
2022-11-28T09:46:41.989Z,4.79
2022-11-28T09:49:50.267Z,4.86
2022-11-28T09:53:10.498Z,4.82
2022-11-28T09:56:18.613Z,4.72
2022-11-28T09:59:27.649Z,4.71
2022-11-28T10:02:39.313Z,4.65
2022-11-28T10:06:18.025Z,4.56
2022-11-28T10:09:31.780Z,4.59
2022-11-28T10:13:11.874Z,4.59
2022-11-28T10:16:39.671Z,4.61
2022-11-28T10:20:02.955Z,4.69
2022-11-28T10:23:15.598Z,4.74
2022-11-28T10:26:30.934Z,4.80
2022-11-28T10:29:56.220Z,4.82
2022-11-28T10:33:24.599Z,4.79
2022-11-28T10:36:50.783Z,4.76
2022-11-28T10:39:54.765Z,4.77
2022-11-28T10:43:02.777Z,4.73
2022-11-28T10:46:21.452Z,4.74
2022-11-28T10:49:40.765Z,4.54
2022-11-28T10:53:16.424Z,4.65
2022-11-28T10:56:37.402Z,4.77
2022-11-28T11:00:14.529Z,4.81
2022-11-28T11:03:27.575Z,4.77
2022-11-28T11:06:41.397Z,4.66
2022-11-28T11:09:50.160Z,4.71
2022-11-28T11:12:53.322Z,4.74
2022-11-28T11:16:00.259Z,4.71
2022-11-28T11:19:02.761Z,4.75
2022-11-28T11:22:19.973Z,4.65
2022-11-28T11:25:24.572Z,4.65
2022-11-28T11:28:29.640Z,4.76
2022-11-28T11:31:38.719Z,4.82
2022-11-28T11:34:45.641Z,4.87
2022-11-28T11:37:48.095Z,4.88
2022-11-28T11:40:51.249Z,4.93
2022-11-28T11:43:53.836Z,4.93
2022-11-28T11:47:03.526Z,4.89
2022-11-28T11:50:06.679Z,4.99
2022-11-28T11:53:14.927Z,4.98
2022-11-28T11:56:17.972Z,5.02
2022-11-28T11:59:37.077Z,5.09
2022-11-28T12:02:53.051Z,5.06
2022-11-28T12:06:14.198Z,5.00
2022-11-28T12:09:29.675Z,5.06
2022-11-28T12:12:36.849Z,5.11
2022-11-28T12:16:00.253Z,5.13
2022-11-28T12:19:11.570Z,5.22
2022-11-28T12:22:53.752Z,5.22
2022-11-28T12:26:14.787Z,5.27
2022-11-28T12:29:37.601Z,5.22
2022-11-28T12:33:14.286Z,5.28
2022-11-28T12:36:28.713Z,5.29
2022-11-28T12:39:56.000Z,5.27
2022-11-28T12:43:20.958Z,5.25
2022-11-28T12:46:48.344Z,5.21
2022-11-28T12:49:55.454Z,5.34
2022-11-28T12:53:09.994Z,5.37
2022-11-28T12:56:24.656Z,5.42
2022-11-28T12:59:47.476Z,5.36
2022-11-28T13:02:56.012Z,5.34
2022-11-28T13:06:10.712Z,5.34
2022-11-28T13:09:34.933Z,5.26
2022-11-28T13:12:40.386Z,5.21
2022-11-28T13:15:57.817Z,5.27
2022-11-28T13:19:33.931Z,5.35
2022-11-28T13:22:50.751Z,5.35
2022-11-28T13:26:13.719Z,5.32
2022-11-28T13:29:18.844Z,5.38
2022-11-28T13:32:35.488Z,5.34
2022-11-28T13:35:41.703Z,5.30
2022-11-28T13:39:13.626Z,5.29
2022-11-28T13:43:02.436Z,5.30
2022-11-28T13:45:58.849Z,5.37
2022-11-28T13:49:19.688Z,5.41
2022-11-28T13:52:25.524Z,5.44
2022-11-28T13:56:03.010Z,5.56
2022-11-28T13:59:22.173Z,5.50
2022-11-28T14:02:32.728Z,5.40
2022-11-28T14:05:41.765Z,5.47
2022-11-28T14:08:46.273Z,5.48
2022-11-28T14:12:27.373Z,5.63
2022-11-28T14:15:35.417Z,5.53
2022-11-28T14:18:57.709Z,5.50
2022-11-28T14:22:06.600Z,5.52
2022-11-28T14:25:28.518Z,5.52
2022-11-28T14:28:36.769Z,5.37
2022-11-28T14:31:40.241Z,5.43
2022-11-28T14:34:46.020Z,5.34
2022-11-28T14:37:50.429Z,5.23
2022-11-28T14:40:55.915Z,5.27
2022-11-28T14:44:36.039Z,5.24
2022-11-28T14:47:43.069Z,5.22
2022-11-28T14:50:47.202Z,5.10
2022-11-28T14:53:51.860Z,5.09
2022-11-28T14:56:59.833Z,5.02
2022-11-28T15:00:15.341Z,5.04
2022-11-28T15:03:53.776Z,4.97
2022-11-28T15:06:59.575Z,4.82
2022-11-28T15:10:09.973Z,4.72
2022-11-28T15:13:58.373Z,4.60
2022-11-28T15:17:04.906Z,4.66
2022-11-28T15:20:20.828Z,4.45
2022-11-28T15:23:34.053Z,4.35
2022-11-28T15:26:36.864Z,4.35
2022-11-28T15:29:39.321Z,4.28
2022-11-28T15:32:42.226Z,4.23
2022-11-28T15:36:15.922Z,4.20
2022-11-28T15:39:27.576Z,4.08
2022-11-28T15:42:35.949Z,4.08
2022-11-28T15:45:42.076Z,4.07
2022-11-28T15:48:50.107Z,3.97
2022-11-28T15:51:54.340Z,3.93
2022-11-28T15:54:57.350Z,3.88
2022-11-28T15:58:23.367Z,3.85
2022-11-28T16:01:27.867Z,3.88
2022-11-28T16:04:31.103Z,3.84
2022-11-28T16:07:36.810Z,3.83
2022-11-28T16:10:44.253Z,3.84
2022-11-28T16:13:47.327Z,3.84
2022-11-28T16:16:50.481Z,3.78
2022-11-28T16:19:55.399Z,3.89
2022-11-28T16:23:00.184Z,3.86
2022-11-28T16:26:08.245Z,3.84
2022-11-28T16:29:14.643Z,3.99
2022-11-28T16:32:31.731Z,3.92
2022-11-28T16:35:38.913Z,3.89
2022-11-28T16:38:42.782Z,3.89
2022-11-28T16:41:51.973Z,3.89
2022-11-28T16:44:54.182Z,3.85
2022-11-28T16:48:02.367Z,3.77
2022-11-28T16:51:13.505Z,3.74
2022-11-28T16:54:27.526Z,3.76
2022-11-28T16:57:46.778Z,3.77
2022-11-28T17:00:58.348Z,3.65
2022-11-28T17:04:00.599Z,3.66
2022-11-28T17:07:05.261Z,3.54
2022-11-28T17:10:07.878Z,3.52
2022-11-28T17:13:12.037Z,3.49
2022-11-28T17:16:22.838Z,3.41
2022-11-28T17:19:25.434Z,3.44
2022-11-28T17:22:40.752Z,3.38
2022-11-28T17:25:43.828Z,3.34
2022-11-28T17:28:47.033Z,3.24
2022-11-28T17:31:50.259Z,3.20
2022-11-28T17:34:52.712Z,3.19
2022-11-28T17:37:55.231Z,3.10
2022-11-28T17:40:57.738Z,2.93
2022-11-28T17:44:00.359Z,2.86
2022-11-28T17:47:03.052Z,2.81
2022-11-28T17:50:06.398Z,2.90
2022-11-28T17:53:10.915Z,2.85
2022-11-28T17:56:13.648Z,2.84
2022-11-28T17:59:18.077Z,2.87
2022-11-28T18:02:21.326Z,2.90
2022-11-28T18:05:23.835Z,2.83
2022-11-28T18:08:26.194Z,2.65
2022-11-28T18:11:28.865Z,2.70
2022-11-28T18:14:36.599Z,2.75
2022-11-28T18:17:42.171Z,2.75
2022-11-28T18:20:44.269Z,2.75
2022-11-28T18:23:49.766Z,2.74
2022-11-28T18:26:52.944Z,2.65
2022-11-28T18:29:56.578Z,2.66
2022-11-28T18:32:58.804Z,2.69
2022-11-28T18:36:16.681Z,2.77
2022-11-28T18:39:18.842Z,2.74
2022-11-28T18:42:21.552Z,2.79
2022-11-28T18:45:24.044Z,2.75
2022-11-28T18:48:26.983Z,2.74
2022-11-28T18:51:32.491Z,2.63
2022-11-28T18:54:35.118Z,2.69
2022-11-28T18:57:38.578Z,2.60
2022-11-28T19:00:41.426Z,2.64
2022-11-28T19:03:47.854Z,2.69
2022-11-28T19:06:50.289Z,2.52
2022-11-28T19:09:52.577Z,2.53
2022-11-28T19:12:54.982Z,2.54
2022-11-28T19:15:57.701Z,2.55
2022-11-28T19:19:01.470Z,2.44
2022-11-28T19:22:04.165Z,2.49
2022-11-28T19:25:07.657Z,2.56
2022-11-28T19:28:10.327Z,2.50
2022-11-28T19:31:21.488Z,2.56
2022-11-28T19:34:24.205Z,2.59
2022-11-28T19:37:26.814Z,2.61
2022-11-28T19:40:28.985Z,2.63
2022-11-28T19:43:31.446Z,2.61
2022-11-28T19:46:35.874Z,2.66
2022-11-28T19:49:38.962Z,2.71
2022-11-28T19:52:41.730Z,2.79
2022-11-28T19:55:44.686Z,2.83
2022-11-28T19:58:47.485Z,2.78
2022-11-28T20:01:50.256Z,2.79
2022-11-28T20:04:52.797Z,2.77
2022-11-28T20:07:58.506Z,2.79
2022-11-28T20:11:15.979Z,2.79
2022-11-28T20:14:20.834Z,2.78
2022-11-28T20:17:23.425Z,2.78
2022-11-28T20:20:25.671Z,2.81
2022-11-28T20:23:28.248Z,2.69
2022-11-28T20:26:34.666Z,2.73
2022-11-28T20:29:38.645Z,2.74
2022-11-28T20:32:40.745Z,2.72
2022-11-28T20:35:43.657Z,2.66
2022-11-28T20:38:46.502Z,2.67
2022-11-28T20:41:48.999Z,2.70
2022-11-28T20:44:51.081Z,2.59
2022-11-28T20:47:53.537Z,2.59
2022-11-28T20:50:55.684Z,2.62
2022-11-28T20:54:00.442Z,2.49
2022-11-28T20:57:20.836Z,2.52
2022-11-28T21:00:26.746Z,2.55
2022-11-28T21:03:29.209Z,2.49
2022-11-28T21:06:31.918Z,2.55
2022-11-28T21:09:34.250Z,2.62
2022-11-28T21:12:36.668Z,2.61
2022-11-28T21:15:45.543Z,2.70
2022-11-28T21:18:49.184Z,2.63
2022-11-28T21:21:51.848Z,2.63
2022-11-28T21:24:54.234Z,2.67
2022-11-28T21:27:56.490Z,2.72
2022-11-28T21:30:59.153Z,2.68
2022-11-28T21:34:01.557Z,2.82
2022-11-28T21:37:03.923Z,2.77
2022-11-28T21:40:06.730Z,2.69
2022-11-28T21:43:09.201Z,2.74
2022-11-28T21:46:12.094Z,2.82
2022-11-28T21:49:14.819Z,2.87
2022-11-28T21:52:23.385Z,2.85
2022-11-28T21:55:25.938Z,2.76
2022-11-28T21:58:29.018Z,2.78
2022-11-28T22:01:31.823Z,2.87
2022-11-28T22:04:34.400Z,2.78
2022-11-28T22:07:36.932Z,2.72
2022-11-28T22:10:39.346Z,2.79
2022-11-28T22:13:42.790Z,2.85
2022-11-28T22:16:45.176Z,2.78
2022-11-28T22:19:47.429Z,2.86
2022-11-28T22:22:50.190Z,2.86
2022-11-28T22:25:53.472Z,2.93
2022-11-28T22:28:56.030Z,3.00
2022-11-28T22:31:58.423Z,2.98
2022-11-28T22:35:02.632Z,2.97
2022-11-28T22:38:04.745Z,2.94
2022-11-28T22:41:12.253Z,2.95
2022-11-28T22:44:14.740Z,2.98
2022-11-28T22:47:17.473Z,2.91
2022-11-28T22:50:20.063Z,2.89
2022-11-28T22:53:22.585Z,2.83
2022-11-28T22:56:25.383Z,2.75
2022-11-28T22:59:27.835Z,2.76
2022-11-28T23:02:30.209Z,2.71
2022-11-28T23:05:33.142Z,2.78
2022-11-28T23:08:35.759Z,2.73
2022-11-28T23:11:39.885Z,2.71
2022-11-28T23:14:42.986Z,2.78
2022-11-28T23:17:45.507Z,2.74
2022-11-28T23:20:47.659Z,2.65
2022-11-28T23:23:50.233Z,2.63
2022-11-28T23:26:53.292Z,2.63
2022-11-28T23:29:55.769Z,2.57
2022-11-28T23:32:58.442Z,2.50
2022-11-28T23:36:00.965Z,2.52
2022-11-28T23:39:05.772Z,2.52
2022-11-28T23:42:08.213Z,2.38
2022-11-28T23:45:11.072Z,2.34
2022-11-28T23:48:16.169Z,2.28
2022-11-28T23:51:21.196Z,2.35
2022-11-28T23:54:23.601Z,2.33
2022-11-28T23:57:25.731Z,2.33
